Startpagina
METAR-TAF:

METAR-TAF

Vliegvelden :

Geilenkirchen, Duitsland

breedte: 50-57-39N, lengte: 006-2-33E, hoogte: 90 m

Actueel weer

Dit bericht is 24 minuten geleden gemaakt, om 18:50 UTC
Wind 7 kt uit het westen
Temperatuur 14°C
Vochtigheid 58%
Druk 1016 hPa
Zicht 10 km of meer
geen wolken onder 1500 m en geen cumulonimbus

METAR: ETNG 231850Z 27007KT CAVOK 14/06 Q1016

Tijdstip: 21:14 (19:14 UTC)

Verwachting

Dit bericht is 2 uur en het 14 minuten geleden gemaakt, om 17:00 UTC
Verwachting geldig van 23 om 18 UTC tot 24 om 09 UTC
Wind 5 kt uit het westzuidwesten
Zicht 10 km of meer
Verspreide wolken op 3500 ft
Wijzigt naar
van 24 om 04 UTC tot 24 om 06 UTC
Wind 11 kt uit het westzuidwesten met uitschieters tot 18 kt

TAF: ETNG 231700Z 2318/2409 24005KT 9999 SCT035 BECMG 2404/2406 24011G18KT

Waarnemingen en weersverwachtingen van meer dan 4000 vliegvelden (METAR en TAF).

De beschikbare stations zijn de gele en rode punten op de kaart.

Ga met uw muis naar het station om de naam te zien.

Klik dan om waarnemingen en weersverwachtingen te zien.

kaart wijzigen: klik op de groene knoppen met een zwart kruis om in te zoomen, op de groene knop met een streepje om uit te zoomen of op de groene pijlen voor aangrenzende kaarten.


METAR-TAF: